createdAt,value
2023-03-27T00:01:16.490Z,3.03
2023-03-27T00:06:17.259Z,3.08
2023-03-27T00:08:46.396Z,3.22
2023-03-27T00:11:13.816Z,2.70
2023-03-27T00:16:18.772Z,3.03
2023-03-27T00:18:45.955Z,3.13
2023-03-27T00:21:12.650Z,3.00
2023-03-27T00:23:39.236Z,3.27
2023-03-27T00:26:06.164Z,3.37
2023-03-27T00:28:32.901Z,3.45
2023-03-27T00:30:59.832Z,3.45
2023-03-27T00:33:26.955Z,3.17
2023-03-27T00:35:54.290Z,3.00
2023-03-27T00:40:50.836Z,2.58
2023-03-27T00:43:29.085Z,3.50
2023-03-27T00:46:02.831Z,3.13
2023-03-27T00:48:33.274Z,3.22
2023-03-27T00:50:59.994Z,3.40
2023-03-27T00:53:30.041Z,3.15
2023-03-27T00:56:01.506Z,3.20
2023-03-27T00:58:42.166Z,2.85
2023-03-27T01:01:12.287Z,3.33
2023-03-27T01:03:41.425Z,3.15
2023-03-27T01:06:09.607Z,2.63
2023-03-27T01:08:39.436Z,3.30
2023-03-27T01:11:33.255Z,3.40
2023-03-27T01:14:08.938Z,3.35
2023-03-27T01:16:42.637Z,3.90
2023-03-27T01:19:24.784Z,4.22
2023-03-27T01:22:06.891Z,3.25
2023-03-27T01:24:56.474Z,3.08
2023-03-27T01:27:54.757Z,2.72
2023-03-27T01:30:31.896Z,2.50
2023-03-27T01:33:18.425Z,3.28
2023-03-27T01:36:13.289Z,3.70
2023-03-27T01:39:08.279Z,3.17
2023-03-27T01:41:42.648Z,2.92
2023-03-27T01:44:19.811Z,3.65
2023-03-27T01:49:24.174Z,3.15
2023-03-27T01:52:06.538Z,3.50
2023-03-27T01:54:38.397Z,4.20
2023-03-27T01:57:09.104Z,4.35
2023-03-27T01:59:41.735Z,4.00
2023-03-27T02:02:23.486Z,4.43
2023-03-27T02:04:57.202Z,4.25
2023-03-27T02:07:38.494Z,4.60
2023-03-27T02:10:09.107Z,4.30
2023-03-27T02:12:43.660Z,4.53
2023-03-27T02:15:23.053Z,3.95
2023-03-27T02:18:05.245Z,4.20
2023-03-27T02:20:38.351Z,3.88
2023-03-27T02:23:06.408Z,3.80
2023-03-27T02:25:36.124Z,3.95
2023-03-27T02:28:29.214Z,4.05
2023-03-27T02:31:32.733Z,3.97
2023-03-27T02:34:13.245Z,4.00
2023-03-27T02:36:45.402Z,4.38
2023-03-27T02:39:22.469Z,4.35
2023-03-27T02:41:57.050Z,4.88
2023-03-27T02:44:32.918Z,4.35
2023-03-27T02:47:14.850Z,4.50
2023-03-27T02:49:53.916Z,4.53
2023-03-27T02:52:31.038Z,4.32
2023-03-27T02:55:07.489Z,4.32
2023-03-27T02:57:40.797Z,4.75
2023-03-27T03:00:25.940Z,4.65
2023-03-27T03:03:00.609Z,4.82
2023-03-27T03:05:27.607Z,4.65
2023-03-27T03:07:54.453Z,4.70
2023-03-27T03:10:21.470Z,4.50
2023-03-27T03:12:48.020Z,4.45
2023-03-27T03:15:14.648Z,4.83
2023-03-27T03:17:41.231Z,4.90
2023-03-27T03:20:09.903Z,4.80
2023-03-27T03:22:39.998Z,4.60
2023-03-27T03:25:07.853Z,4.18
2023-03-27T03:27:34.450Z,4.90
2023-03-27T03:30:01.312Z,5.10
2023-03-27T03:32:28.152Z,4.45
2023-03-27T03:34:57.063Z,4.85
2023-03-27T03:37:28.721Z,4.90
2023-03-27T03:39:55.889Z,4.68
2023-03-27T03:42:24.224Z,5.07
2023-03-27T03:44:51.095Z,4.88
2023-03-27T03:47:17.807Z,4.68
2023-03-27T03:49:44.468Z,4.63
2023-03-27T03:52:11.066Z,5.15
2023-03-27T03:54:38.813Z,4.70
2023-03-27T03:57:05.717Z,5.22
2023-03-27T03:59:32.551Z,5.53
2023-03-27T04:01:59.197Z,5.32
2023-03-27T04:04:25.890Z,4.97
2023-03-27T04:06:53.151Z,5.20
2023-03-27T04:09:19.783Z,4.78
2023-03-27T04:11:47.069Z,5.78
2023-03-27T04:14:13.770Z,6.40
2023-03-27T04:16:40.331Z,6.45
2023-03-27T04:19:07.206Z,5.83
2023-03-27T04:21:33.761Z,5.80
2023-03-27T04:24:02.587Z,5.63
2023-03-27T04:26:29.779Z,5.70
2023-03-27T04:28:56.586Z,6.15
2023-03-27T04:31:23.165Z,5.70
2023-03-27T04:33:52.341Z,5.68
2023-03-27T04:36:19.712Z,5.53
2023-03-27T04:38:47.985Z,5.47
2023-03-27T04:41:14.766Z,5.70
2023-03-27T04:43:41.948Z,5.22
2023-03-27T04:46:09.393Z,5.70
2023-03-27T04:48:38.526Z,5.60
2023-03-27T04:51:06.904Z,5.55
2023-03-27T04:53:36.139Z,5.60
2023-03-27T04:56:03.131Z,6.22
2023-03-27T04:58:29.745Z,6.10
2023-03-27T05:00:57.560Z,6.60
2023-03-27T05:03:24.512Z,6.43
2023-03-27T05:05:51.230Z,7.03
2023-03-27T05:08:18.476Z,5.80
2023-03-27T05:10:46.517Z,5.40
2023-03-27T05:13:13.289Z,5.70
2023-03-27T05:15:39.814Z,5.70
2023-03-27T05:18:07.494Z,5.30
2023-03-27T05:20:34.727Z,5.40
2023-03-27T05:23:01.379Z,5.45
2023-03-27T05:25:29.030Z,5.22
2023-03-27T05:27:55.599Z,5.50
2023-03-27T05:30:24.663Z,5.50
2023-03-27T05:32:53.610Z,5.90
2023-03-27T05:35:23.417Z,5.60
2023-03-27T05:37:52.721Z,5.63
2023-03-27T05:40:25.286Z,5.43
2023-03-27T05:42:53.365Z,5.22
2023-03-27T05:45:20.951Z,5.40
2023-03-27T05:47:56.041Z,5.63
2023-03-27T05:50:25.507Z,5.68
2023-03-27T05:52:59.585Z,5.68
2023-03-27T05:55:28.063Z,5.93
2023-03-27T05:57:55.287Z,6.20
2023-03-27T06:00:25.818Z,6.88
2023-03-27T06:02:57.324Z,5.90
2023-03-27T06:05:25.068Z,6.07
2023-03-27T06:07:52.191Z,5.97
2023-03-27T06:10:20.535Z,5.80
2023-03-27T06:12:48.952Z,6.40
2023-03-27T06:15:16.339Z,6.35
2023-03-27T06:17:44.089Z,5.90
2023-03-27T06:20:12.593Z,6.30
2023-03-27T06:22:46.267Z,6.20
2023-03-27T06:25:14.181Z,6.03
2023-03-27T06:27:45.551Z,5.95
2023-03-27T06:30:13.718Z,6.45
2023-03-27T06:32:52.466Z,6.00
2023-03-27T06:35:20.338Z,5.97
2023-03-27T06:37:51.271Z,5.68
2023-03-27T06:40:24.378Z,5.68
2023-03-27T06:43:05.896Z,5.88
2023-03-27T06:45:36.090Z,5.47
2023-03-27T06:48:18.831Z,5.28
2023-03-27T06:50:50.887Z,4.90
2023-03-27T06:55:48.344Z,4.82
2023-03-27T06:58:16.688Z,4.97
2023-03-27T07:00:44.487Z,5.50
2023-03-27T07:03:11.934Z,4.25
2023-03-27T07:08:22.437Z,4.38
2023-03-27T07:11:00.422Z,4.10
2023-03-27T07:13:34.615Z,4.07
2023-03-27T07:16:01.277Z,4.95
2023-03-27T07:18:27.922Z,3.85
2023-03-27T07:20:54.737Z,4.10
2023-03-27T07:23:21.516Z,4.05
2023-03-27T07:25:50.203Z,4.00
2023-03-27T07:28:18.515Z,3.90
2023-03-27T07:30:45.440Z,3.75
2023-03-27T07:33:12.711Z,4.10
2023-03-27T07:35:47.549Z,4.07
2023-03-27T07:38:14.711Z,4.05
2023-03-27T07:40:43.428Z,4.07
2023-03-27T07:43:10.122Z,3.60
2023-03-27T07:45:36.715Z,4.38
2023-03-27T07:48:14.077Z,3.80
2023-03-27T07:50:40.634Z,3.35
2023-03-27T07:53:07.334Z,4.37
2023-03-27T07:55:37.777Z,3.40
2023-03-27T07:58:06.817Z,3.50
2023-03-27T08:00:35.529Z,3.90
2023-03-27T08:03:10.751Z,3.28
2023-03-27T08:05:38.483Z,4.43
2023-03-27T08:08:05.144Z,3.58
2023-03-27T08:10:32.271Z,3.45
2023-03-27T08:12:58.968Z,3.92
2023-03-27T08:15:25.905Z,3.78
2023-03-27T08:17:55.221Z,3.50
2023-03-27T08:20:24.133Z,3.47
2023-03-27T08:22:53.873Z,4.00
2023-03-27T08:25:22.830Z,4.03
2023-03-27T08:27:49.998Z,3.50
2023-03-27T08:30:17.451Z,2.88
2023-03-27T08:32:44.890Z,2.97
2023-03-27T08:37:39.688Z,2.38
2023-03-27T08:40:13.552Z,2.63
2023-03-27T08:42:44.048Z,2.85
2023-03-27T08:45:20.796Z,2.72
2023-03-27T08:47:56.668Z,2.70
2023-03-27T08:50:44.201Z,2.88
2023-03-27T08:53:22.910Z,3.33
2023-03-27T08:55:49.945Z,3.70
2023-03-27T08:58:21.812Z,2.85
2023-03-27T09:01:03.560Z,3.30
2023-03-27T09:03:38.987Z,2.78
2023-03-27T09:06:26.778Z,2.72
2023-03-27T09:08:59.522Z,3.00
2023-03-27T09:11:37.304Z,3.10
2023-03-27T09:14:14.912Z,3.35
2023-03-27T09:16:49.677Z,2.63
2023-03-27T09:19:24.343Z,3.00
2023-03-27T09:22:15.391Z,2.83
2023-03-27T09:24:50.767Z,3.47
2023-03-27T09:27:34.028Z,3.15
2023-03-27T09:30:19.321Z,3.33
2023-03-27T09:32:51.782Z,3.38
2023-03-27T09:35:20.900Z,3.40
2023-03-27T09:37:50.621Z,3.78
2023-03-27T09:40:25.640Z,3.25
2023-03-27T09:42:54.713Z,3.83
2023-03-27T09:45:22.238Z,3.58
2023-03-27T09:47:51.680Z,4.00
2023-03-27T09:50:41.369Z,4.35
2023-03-27T09:53:12.388Z,3.70
2023-03-27T09:55:56.378Z,3.85
2023-03-27T09:58:29.031Z,22.73
2023-03-27T10:01:21.712Z,5.30
2023-03-27T10:03:52.064Z,6.45
2023-03-27T10:06:27.192Z,6.55
2023-03-27T10:08:55.851Z,4.65
2023-03-27T10:11:27.326Z,5.07
2023-03-27T10:13:55.322Z,4.40
2023-03-27T10:16:22.948Z,6.13
2023-03-27T10:18:55.716Z,4.38
2023-03-27T10:21:32.665Z,4.65
2023-03-27T10:24:05.715Z,4.65
2023-03-27T10:26:37.004Z,4.43
2023-03-27T10:29:19.077Z,4.28
2023-03-27T10:31:52.724Z,4.40
2023-03-27T10:34:33.634Z,5.07
2023-03-27T10:37:04.908Z,3.70
2023-03-27T10:39:35.918Z,5.22
2023-03-27T10:42:07.605Z,5.20
2023-03-27T10:44:37.747Z,4.53
2023-03-27T10:47:14.996Z,4.65
2023-03-27T10:52:20.932Z,5.00
2023-03-27T10:54:54.599Z,4.70
2023-03-27T10:57:37.350Z,5.50
2023-03-27T11:00:41.058Z,4.70
2023-03-27T11:03:34.738Z,4.45
2023-03-27T11:06:05.610Z,5.15
2023-03-27T11:08:34.729Z,5.60
2023-03-27T11:11:28.490Z,4.70
2023-03-27T11:14:02.275Z,5.18
2023-03-27T11:17:04.558Z,4.28
2023-03-27T11:19:49.826Z,4.22
2023-03-27T11:22:23.644Z,4.85
2023-03-27T11:25:06.549Z,4.60
2023-03-27T11:27:41.466Z,3.30
2023-03-27T11:30:08.398Z,3.10
2023-03-27T11:32:45.695Z,4.78
2023-03-27T11:35:23.071Z,3.20
2023-03-27T11:38:04.512Z,3.08
2023-03-27T11:40:40.292Z,3.63
2023-03-27T11:43:11.078Z,2.42
2023-03-27T11:46:00.792Z,2.25
2023-03-27T11:48:51.648Z,2.00
2023-03-27T11:51:53.867Z,2.15
2023-03-27T11:54:53.573Z,1.48
2023-03-27T11:57:26.393Z,1.85
2023-03-27T12:00:07.099Z,1.63
2023-03-27T12:02:49.447Z,1.40
2023-03-27T12:05:36.588Z,2.03
2023-03-27T12:10:47.747Z,1.60
2023-03-27T12:13:41.891Z,1.40
2023-03-27T12:16:29.006Z,0.50
2023-03-27T12:19:32.526Z,0.88
2023-03-27T12:22:40.237Z,1.75
2023-03-27T12:25:32.731Z,0.68
2023-03-27T12:28:23.123Z,1.40
2023-03-27T12:30:50.080Z,2.60
2023-03-27T12:33:42.806Z,1.60
2023-03-27T12:36:15.003Z,0.70
2023-03-27T12:38:43.779Z,0.80
2023-03-27T12:41:25.890Z,1.00
2023-03-27T12:44:01.131Z,10.30
2023-03-27T12:46:28.546Z,6.72
2023-03-27T12:51:54.065Z,5.10
2023-03-27T12:54:39.754Z,6.80
2023-03-27T12:57:20.715Z,5.55
2023-03-27T12:59:59.823Z,5.00
2023-03-27T13:02:35.779Z,3.60
2023-03-27T13:05:28.040Z,2.42
2023-03-27T13:08:07.129Z,3.80
2023-03-27T13:11:04.354Z,1.77
2023-03-27T13:13:33.900Z,1.17
2023-03-27T13:16:31.601Z,1.35
2023-03-27T13:19:05.306Z,11.35
2023-03-27T13:22:03.764Z,5.00
2023-03-27T13:24:52.389Z,4.13
2023-03-27T13:27:37.284Z,6.20
2023-03-27T13:30:05.546Z,2.97
2023-03-27T13:32:39.166Z,3.67
2023-03-27T13:35:11.658Z,3.95
2023-03-27T13:37:48.395Z,2.70
2023-03-27T13:40:24.481Z,2.50
2023-03-27T13:42:55.837Z,4.25
2023-03-27T13:45:29.639Z,2.28
2023-03-27T13:48:13.655Z,1.20
2023-03-27T13:50:52.386Z,1.20
2023-03-27T13:53:33.963Z,0.98
2023-03-27T13:56:32.035Z,2.83
2023-03-27T13:59:29.390Z,2.50
2023-03-27T14:02:03.923Z,1.30
2023-03-27T14:04:58.695Z,2.45
2023-03-27T14:07:55.868Z,3.42
2023-03-27T14:11:16.785Z,2.50
2023-03-27T14:13:43.314Z,3.63
2023-03-27T14:16:37.560Z,3.30
2023-03-27T14:19:10.003Z,4.22
2023-03-27T14:21:58.641Z,3.42
2023-03-27T14:25:05.487Z,1.65
2023-03-27T14:27:34.582Z,1.75
2023-03-27T14:30:16.603Z,2.53
2023-03-27T14:32:43.772Z,2.15
2023-03-27T14:35:44.063Z,3.08
2023-03-27T14:38:22.822Z,2.22
2023-03-27T14:40:52.983Z,16.15
2023-03-27T14:43:22.019Z,4.80
2023-03-27T14:45:51.669Z,8.02
2023-03-27T14:48:30.318Z,3.13
2023-03-27T14:51:03.302Z,2.50
2023-03-27T14:53:36.792Z,4.30
2023-03-27T14:56:24.922Z,3.20
2023-03-27T14:58:54.594Z,3.00
2023-03-27T15:01:21.707Z,4.75
2023-03-27T15:03:51.881Z,3.50
2023-03-27T15:06:23.257Z,2.30
2023-03-27T15:09:05.517Z,2.40
2023-03-27T15:11:39.054Z,2.95
2023-03-27T15:14:12.965Z,2.35
2023-03-27T15:16:41.412Z,4.00
2023-03-27T15:19:14.215Z,7.13
2023-03-27T15:21:58.522Z,2.60
2023-03-27T15:24:55.418Z,1.40
2023-03-27T15:27:26.415Z,1.60
2023-03-27T15:29:58.488Z,1.60
2023-03-27T15:32:42.210Z,2.83
2023-03-27T15:35:13.946Z,5.40
2023-03-27T15:37:40.667Z,5.50
2023-03-27T15:40:13.727Z,3.75
2023-03-27T15:42:54.057Z,5.93
2023-03-27T15:45:23.146Z,2.50
2023-03-27T15:48:02.967Z,5.82
2023-03-27T15:50:29.651Z,7.65
2023-03-27T15:52:58.251Z,3.55
2023-03-27T15:55:42.226Z,5.80
2023-03-27T15:58:20.448Z,10.43
2023-03-27T16:00:49.137Z,14.63
2023-03-27T16:03:21.661Z,14.50
2023-03-27T16:05:51.501Z,11.93
2023-03-27T16:08:28.139Z,9.60
2023-03-27T16:10:55.786Z,7.13
2023-03-27T16:13:28.229Z,7.47
2023-03-27T16:16:00.842Z,8.48
2023-03-27T16:18:34.288Z,6.40
2023-03-27T16:21:13.465Z,6.43
2023-03-27T16:23:40.794Z,7.90
2023-03-27T16:26:12.479Z,7.25
2023-03-27T16:28:40.660Z,7.38
2023-03-27T16:31:15.073Z,5.68
2023-03-27T16:33:45.686Z,6.10
2023-03-27T16:36:15.352Z,9.60
2023-03-27T16:38:43.770Z,9.73
2023-03-27T16:41:13.344Z,7.20
2023-03-27T16:43:40.420Z,10.52
2023-03-27T16:46:10.854Z,9.13
2023-03-27T16:48:37.434Z,5.70
2023-03-27T16:51:04.130Z,4.93
2023-03-27T16:53:30.727Z,3.80
2023-03-27T16:55:57.902Z,2.38
2023-03-27T16:58:24.672Z,2.83
2023-03-27T17:00:51.313Z,2.45
2023-03-27T17:03:17.949Z,2.75
2023-03-27T17:05:44.555Z,4.23
2023-03-27T17:08:13.012Z,4.03
2023-03-27T17:10:39.630Z,8.05
2023-03-27T17:13:06.646Z,7.17
2023-03-27T17:15:39.107Z,9.25
2023-03-27T17:18:06.329Z,8.27
2023-03-27T17:20:32.957Z,7.82
2023-03-27T17:22:59.587Z,7.70
2023-03-27T17:25:26.436Z,6.43
2023-03-27T17:27:53.132Z,5.53
2023-03-27T17:30:30.623Z,4.13
2023-03-27T17:33:01.721Z,4.47
2023-03-27T17:35:28.524Z,6.10
2023-03-27T17:37:55.237Z,7.13
2023-03-27T17:40:21.883Z,4.38
2023-03-27T17:42:48.454Z,4.57
2023-03-27T17:45:15.382Z,6.03
2023-03-27T17:47:41.965Z,8.13
2023-03-27T17:50:08.804Z,14.70
2023-03-27T17:52:35.668Z,9.95
2023-03-27T17:55:02.311Z,9.48
2023-03-27T17:57:29.681Z,7.68
2023-03-27T18:02:22.894Z,5.22
2023-03-27T18:04:52.243Z,3.70
2023-03-27T18:07:20.038Z,3.22
2023-03-27T18:09:46.865Z,3.20
2023-03-27T18:12:14.020Z,3.30
2023-03-27T18:14:42.446Z,3.55
2023-03-27T18:17:09.476Z,6.40
2023-03-27T18:19:36.364Z,7.13
2023-03-27T18:22:03.732Z,6.10
2023-03-27T18:24:30.369Z,6.25
2023-03-27T18:26:56.918Z,6.95
2023-03-27T18:29:24.548Z,8.00
2023-03-27T18:31:51.263Z,4.40
2023-03-27T18:34:18.103Z,3.50
2023-03-27T18:36:50.732Z,7.85
2023-03-27T18:39:21.070Z,11.13
2023-03-27T18:41:47.649Z,4.07
2023-03-27T18:44:14.569Z,5.63
2023-03-27T18:46:41.256Z,2.30
2023-03-27T18:49:21.566Z,2.10
2023-03-27T18:51:48.433Z,2.60
2023-03-27T18:54:15.021Z,2.83
2023-03-27T18:56:42.102Z,3.10
2023-03-27T18:59:11.141Z,3.38
2023-03-27T19:01:37.849Z,3.22
2023-03-27T19:04:04.710Z,3.10
2023-03-27T19:06:32.668Z,3.55
2023-03-27T19:08:59.587Z,4.03
2023-03-27T19:11:26.176Z,4.47
2023-03-27T19:13:53.052Z,5.28
2023-03-27T19:16:19.620Z,5.53
2023-03-27T19:18:46.332Z,5.13
2023-03-27T19:21:12.920Z,3.25
2023-03-27T19:23:39.482Z,3.45
2023-03-27T19:26:08.648Z,2.72
2023-03-27T19:28:35.896Z,2.50
2023-03-27T19:31:11.372Z,1.92
2023-03-27T19:33:38.881Z,1.60
2023-03-27T19:38:32.194Z,1.90
2023-03-27T19:40:59.059Z,2.10
2023-03-27T19:43:25.991Z,1.70
2023-03-27T19:46:08.277Z,1.23
2023-03-27T19:48:42.069Z,1.20
2023-03-27T19:51:08.604Z,1.30
2023-03-27T19:53:35.185Z,1.10
2023-03-27T19:56:01.831Z,1.00
2023-03-27T19:58:29.292Z,1.55
2023-03-27T20:03:27.199Z,1.40
2023-03-27T20:05:56.300Z,1.40
2023-03-27T20:08:38.299Z,1.58
2023-03-27T20:11:06.918Z,2.08
2023-03-27T20:13:42.464Z,1.98
2023-03-27T20:16:16.547Z,2.45
2023-03-27T20:18:43.737Z,2.55
2023-03-27T20:21:13.743Z,2.75
2023-03-27T20:23:41.914Z,2.75
2023-03-27T20:26:09.381Z,2.80
2023-03-27T20:31:06.665Z,2.83
2023-03-27T20:33:33.411Z,9.60
2023-03-27T20:36:00.351Z,12.13
2023-03-27T20:38:30.775Z,3.85
2023-03-27T20:40:57.896Z,5.85
2023-03-27T20:43:27.077Z,2.70
2023-03-27T20:45:55.071Z,3.13
2023-03-27T20:48:22.227Z,5.57
2023-03-27T20:50:52.602Z,5.72
2023-03-27T20:53:26.069Z,3.70
2023-03-27T20:55:59.723Z,8.07
2023-03-27T20:58:27.641Z,4.90
2023-03-27T21:00:56.146Z,1.52
2023-03-27T21:03:23.289Z,1.60
2023-03-27T21:05:50.583Z,2.75
2023-03-27T21:08:17.222Z,4.43
2023-03-27T21:10:53.046Z,4.43
2023-03-27T21:13:20.110Z,3.50
2023-03-27T21:15:46.810Z,3.30
2023-03-27T21:18:13.366Z,2.63
2023-03-27T21:20:39.944Z,3.60
2023-03-27T21:23:06.549Z,3.40
2023-03-27T21:25:34.228Z,2.40
2023-03-27T21:28:00.949Z,1.83
2023-03-27T21:30:46.472Z,1.60
2023-03-27T21:33:15.898Z,1.88
2023-03-27T21:35:45.781Z,1.60
2023-03-27T21:38:13.837Z,1.55
2023-03-27T21:40:41.253Z,1.50
2023-03-27T21:45:36.119Z,1.48
2023-03-27T21:48:02.917Z,1.25
2023-03-27T21:50:29.678Z,1.23
2023-03-27T21:52:56.467Z,1.50
2023-03-27T21:55:23.427Z,1.48
2023-03-27T21:57:50.071Z,1.65
2023-03-27T22:00:16.881Z,1.83
2023-03-27T22:02:43.587Z,1.20
2023-03-27T22:05:10.392Z,1.33
2023-03-27T22:07:36.934Z,1.20
2023-03-27T22:10:06.341Z,1.20
2023-03-27T22:12:37.336Z,1.30
2023-03-27T22:15:06.040Z,1.10
2023-03-27T22:17:34.681Z,1.27
2023-03-27T22:20:01.222Z,1.20
2023-03-27T22:22:27.909Z,1.00
2023-03-27T22:24:54.443Z,1.08
2023-03-27T22:27:21.030Z,1.03
2023-03-27T22:29:47.602Z,1.00
2023-03-27T22:32:14.159Z,1.33
2023-03-27T22:34:40.727Z,1.47
2023-03-27T22:37:07.364Z,3.47
2023-03-27T22:39:33.958Z,1.70
2023-03-27T22:42:00.762Z,1.30
2023-03-27T22:44:29.738Z,1.50
2023-03-27T22:46:56.636Z,1.50
2023-03-27T22:49:23.204Z,1.45
2023-03-27T22:51:49.712Z,1.10
2023-03-27T22:54:18.576Z,1.20
2023-03-27T22:56:47.115Z,1.23
2023-03-27T22:59:14.839Z,1.33
2023-03-27T23:01:41.456Z,1.17
2023-03-27T23:04:08.030Z,1.20
2023-03-27T23:06:34.846Z,1.13
2023-03-27T23:09:01.438Z,1.20
2023-03-27T23:11:28.130Z,1.20
2023-03-27T23:13:54.798Z,1.20
2023-03-27T23:16:21.528Z,1.27
2023-03-27T23:18:48.171Z,1.30
2023-03-27T23:21:17.696Z,1.20
2023-03-27T23:23:45.223Z,1.52
2023-03-27T23:26:12.821Z,1.42
2023-03-27T23:28:41.714Z,1.33
2023-03-27T23:31:12.214Z,1.40
2023-03-27T23:33:41.531Z,1.60
2023-03-27T23:36:10.834Z,3.17
2023-03-27T23:38:38.125Z,1.35
2023-03-27T23:41:06.194Z,1.85
2023-03-27T23:43:32.890Z,2.25
2023-03-27T23:45:59.927Z,2.20
2023-03-27T23:48:30.453Z,3.30
2023-03-27T23:50:57.738Z,3.40
2023-03-27T23:53:26.189Z,3.05
2023-03-27T23:55:53.958Z,3.05
2023-03-27T23:58:20.832Z,2.90
